Crest, California
Current Conditions -  °F | °C
As of 9:35 PM on Monday 26 Jan 2015 (Local Time) from KSEE Reporting Station
Broken Clouds Broken Clouds  
Wind Chill: 54°   Ceiling: 8000
Heat Index: 54°   Visibility: 10mi
Dew Point: 54°   Wind: 3mph
Humidity: 100%   Direction: 320°NW
Pressure: 30.1"   Gusts: NA
Location:  32.8383°N, 116.868°W
Report Text: KSEE 270535Z AUTO 32003KT 10SM BKN080 12/12 A3010 RMK AO2
Loading
Personal Weather Stations






























Interactive Weather Map New forecast layout! Learn more

10-Day Weather Forecast

Advertisements
Track Severe Weather on mobile